Time,TemperatureF,DewpointF,PressureIn,WindDirection,WindDirectionDegrees,WindSpeedMPH,WindSpeedGustMPH,Humidity,HourlyPrecipIn,Conditions,Clouds,dailyrainin,SoftwareType,DateUTC
2013-01-07 00:00:00,31.8,31.8,29.92,WNW,301,1.0,1.0,100,0.00,,,0.00,Wunderground v.1.15,2013-01-07 05:00:00,
2013-01-07 00:06:00,31.8,31.8,29.92,WNW,301,1.0,1.0,100,0.00,,,0.00,Wunderground v.1.15,2013-01-07 05:06:00,
2013-01-07 00:10:00,31.6,31.6,29.92,WNW,301,1.0,1.0,100,0.00,,,0.00,Wunderground v.1.15,2013-01-07 05:10:00,
2013-01-07 00:16:00,31.5,31.5,29.92,WNW,301,0.0,1.0,100,0.00,,,0.00,Wunderground v.1.15,2013-01-07 05:16:00,
2013-01-07 00:21:00,31.3,31.3,29.92,WNW,301,0.0,0.0,100,0.00,,,0.00,Wunderground v.1.15,2013-01-07 05:21:00,
2013-01-07 00:31:00,31.2,31.2,29.92,WNW,301,1.0,1.0,100,0.00,,,0.00,Wunderground v.1.15,2013-01-07 05:31:00,
2013-01-07 00:36:00,31.2,31.2,29.92,WNW,301,1.0,1.0,100,0.00,,,0.00,Wunderground v.1.15,2013-01-07 05:36:00,
2013-01-07 00:46:00,31.2,31.2,29.92,WNW,301,1.0,2.0,100,0.00,,,0.00,Wunderground v.1.15,2013-01-07 05:46:00,
2013-01-07 00:51:00,31.3,31.3,29.92,WNW,301,1.0,1.0,100,0.00,,,0.00,Wunderground v.1.15,2013-01-07 05:51:00,
2013-01-07 01:01:00,31.6,31.6,29.93,WNW,301,1.0,1.0,100,0.00,,,0.00,Wunderground v.1.15,2013-01-07 06:01:00,
2013-01-07 01:06:00,31.6,31.6,29.93,WNW,301,1.0,1.0,100,0.00,,,0.00,Wunderground v.1.15,2013-01-07 06:06:00,
2013-01-07 01:11:00,31.8,31.8,29.93,WNW,301,1.0,1.0,100,0.00,,,0.00,Wunderground v.1.15,2013-01-07 06:11:00,
2013-01-07 01:16:00,31.8,31.8,29.93,WNW,301,1.0,2.0,100,0.00,,,0.00,Wunderground v.1.15,2013-01-07 06:16:00,
2013-01-07 01:21:00,31.6,31.6,29.93,WNW,301,1.0,1.0,100,0.00,,,0.00,Wunderground v.1.15,2013-01-07 06:21:00,
2013-01-07 01:31:00,31.8,31.8,29.94,WNW,301,1.0,2.0,100,0.00,,,0.00,Wunderground v.1.15,2013-01-07 06:31:00,
2013-01-07 01:36:00,31.8,31.8,29.94,WNW,301,2.0,2.0,100,0.00,,,0.00,Wunderground v.1.15,2013-01-07 06:36:00,
2013-01-07 01:41:00,31.8,31.8,29.94,WNW,301,2.0,3.0,100,0.00,,,0.00,Wunderground v.1.15,2013-01-07 06:41:00,
2013-01-07 01:46:00,31.8,31.8,29.94,WNW,301,2.0,3.0,100,0.00,,,0.00,Wunderground v.1.15,2013-01-07 06:46:00,
2013-01-07 01:56:00,31.8,31.8,29.94,WNW,301,3.0,3.0,100,0.00,,,0.00,Wunderground v.1.15,2013-01-07 06:56:00,
2013-01-07 02:01:00,31.8,31.8,29.94,WNW,301,2.0,2.0,100,0.00,,,0.00,Wunderground v.1.15,2013-01-07 07:01:00,
2013-01-07 02:10:00,31.6,31.6,29.94,WNW,301,2.0,2.0,100,0.00,,,0.00,Wunderground v.1.15,2013-01-07 07:10:00,
2013-01-07 02:15:00,31.6,31.6,29.95,WNW,301,2.0,2.0,100,0.00,,,0.00,Wunderground v.1.15,2013-01-07 07:15:00,
2013-01-07 02:21:00,31.5,31.5,29.95,WNW,301,2.0,3.0,100,0.00,,,0.00,Wunderground v.1.15,2013-01-07 07:21:00,
2013-01-07 02:26:00,31.5,31.5,29.95,WNW,301,2.0,3.0,100,0.00,,,0.00,Wunderground v.1.15,2013-01-07 07:26:00,
2013-01-07 02:31:00,31.5,31.5,29.95,WNW,301,2.0,2.0,100,0.00,,,0.00,Wunderground v.1.15,2013-01-07 07:31:00,
2013-01-07 02:41:00,31.3,31.3,29.95,WNW,301,2.0,2.0,100,0.00,,,0.00,Wunderground v.1.15,2013-01-07 07:41:00,
2013-01-07 02:46:00,31.3,31.3,29.95,WNW,301,2.0,2.0,100,0.00,,,0.00,Wunderground v.1.15,2013-01-07 07:46:00,
2013-01-07 02:51:00,31.2,31.2,29.95,WNW,301,2.0,2.0,100,0.00,,,0.00,Wunderground v.1.15,2013-01-07 07:51:00,
2013-01-07 02:56:00,31.0,31.0,29.95,WNW,301,2.0,2.0,100,0.00,,,0.00,Wunderground v.1.15,2013-01-07 07:56:00,
2013-01-07 03:01:00,30.9,30.9,29.94,WNW,301,1.0,1.0,100,0.00,,,0.00,Wunderground v.1.15,2013-01-07 08:01:00,
2013-01-07 03:06:00,30.9,30.9,29.94,WNW,301,1.0,3.0,100,0.00,,,0.00,Wunderground v.1.15,2013-01-07 08:06:00,
2013-01-07 03:16:00,30.7,30.7,29.94,NW,305,1.0,1.0,100,0.00,,,0.00,Wunderground v.1.15,2013-01-07 08:16:00,
2013-01-07 03:26:00,31.0,31.0,29.94,NW,325,2.0,3.0,100,0.00,,,0.00,Wunderground v.1.15,2013-01-07 08:26:00,
2013-01-07 03:31:00,31.3,31.3,29.94,NW,323,3.0,6.0,100,0.00,,,0.00,Wunderground v.1.15,2013-01-07 08:31:00,
2013-01-07 03:36:00,31.5,31.5,29.94,NNW,328,3.0,6.0,100,0.00,,,0.00,Wunderground v.1.15,2013-01-07 08:36:00,
2013-01-07 03:46:00,31.8,31.8,29.94,NNW,330,3.0,4.0,100,0.00,,,0.00,Wunderground v.1.15,2013-01-07 08:46:00,
2013-01-07 03:51:00,32.1,32.1,29.94,NNW,329,3.0,3.0,100,0.00,,,0.00,Wunderground v.1.15,2013-01-07 08:51:00,
2013-01-07 04:01:00,32.2,32.2,29.95,NNW,329,1.0,3.0,100,0.00,,,0.00,Wunderground v.1.15,2013-01-07 09:01:00,
2013-01-07 04:06:00,32.4,32.4,29.95,NNW,340,2.0,6.0,100,0.00,,,0.00,Wunderground v.1.15,2013-01-07 09:06:00,
2013-01-07 04:11:00,32.4,32.4,29.95,NNW,332,3.0,3.0,100,0.00,,,0.00,Wunderground v.1.15,2013-01-07 09:11:00,
2013-01-07 04:16:00,32.5,32.5,29.95,NNW,332,2.0,3.0,100,0.00,,,0.00,Wunderground v.1.15,2013-01-07 09:16:00,
2013-01-07 04:21:00,32.5,32.5,29.95,NNW,332,1.0,2.0,100,0.00,,,0.00,Wunderground v.1.15,2013-01-07 09:21:00,
2013-01-07 04:31:00,32.2,32.2,29.95,NNW,332,1.0,1.0,100,0.00,,,0.00,Wunderground v.1.15,2013-01-07 09:31:00,
2013-01-07 04:36:00,32.2,32.2,29.95,NNW,332,2.0,2.0,100,0.00,,,0.00,Wunderground v.1.15,2013-01-07 09:36:00,
2013-01-07 04:46:00,32.1,32.1,29.95,NNW,332,2.0,5.0,100,0.00,,,0.00,Wunderground v.1.15,2013-01-07 09:46:00,
2013-01-07 04:51:00,32.2,32.2,29.95,NNW,333,2.0,2.0,100,0.00,,,0.00,Wunderground v.1.15,2013-01-07 09:51:00,
2013-01-07 04:56:00,32.5,32.5,29.95,NW,323,3.0,3.0,100,0.00,,,0.00,Wunderground v.1.15,2013-01-07 09:56:00,
2013-01-07 05:01:00,32.7,32.7,29.96,NNW,342,3.0,6.0,100,0.00,,,0.00,Wunderground v.1.15,2013-01-07 10:01:00,
2013-01-07 05:06:00,32.7,32.7,29.96,NNW,342,3.0,6.0,100,0.00,,,0.00,Wunderground v.1.15,2013-01-07 10:06:00,
2013-01-07 05:16:00,32.9,32.9,29.96,NNW,347,2.0,6.0,100,0.00,,,0.00,Wunderground v.1.15,2013-01-07 10:16:00,
2013-01-07 05:21:00,33.1,33.1,29.96,NNW,345,2.0,2.0,100,0.00,,,0.00,Wunderground v.1.15,2013-01-07 10:21:00,
2013-01-07 05:31:00,33.4,33.4,29.97,NNW,340,3.0,5.0,100,0.00,,,0.00,Wunderground v.1.15,2013-01-07 10:31:00,
2013-01-07 05:36:00,33.5,33.5,29.97,NNW,340,3.0,5.0,100,0.00,,,0.00,Wunderground v.1.15,2013-01-07 10:36:00,
2013-01-07 05:46:00,33.8,33.8,29.99,NNW,342,3.0,3.0,100,0.00,,,0.00,Wunderground v.1.15,2013-01-07 10:46:00,
2013-01-07 05:51:00,33.8,33.8,29.99,NNW,339,3.0,3.0,100,0.00,,,0.00,Wunderground v.1.15,2013-01-07 10:51:00,
2013-01-07 05:56:00,33.8,33.8,29.99,NNW,338,3.0,3.0,100,0.00,,,0.00,Wunderground v.1.15,2013-01-07 10:56:00,
2013-01-07 06:01:00,33.8,33.8,30.00,NNW,339,3.0,3.0,100,0.00,,,0.00,Wunderground v.1.15,2013-01-07 11:01:00,
2013-01-07 06:06:00,34.0,34.0,30.00,NNW,338,3.0,3.0,100,0.00,,,0.00,Wunderground v.1.15,2013-01-07 11:06:00,
2013-01-07 06:16:00,34.1,34.1,30.00,NW,322,3.0,3.0,100,0.00,,,0.00,Wunderground v.1.15,2013-01-07 11:16:00,
2013-01-07 06:21:00,34.3,34.3,30.00,NNW,328,4.0,4.0,100,0.00,,,0.00,Wunderground v.1.15,2013-01-07 11:21:00,
2013-01-07 06:30:00,35.0,35.0,30.01,NNW,342,4.0,7.0,100,0.00,,,0.00,Wunderground v.1.15,2013-01-07 11:30:00,
2013-01-07 06:35:00,35.2,35.2,30.01,NNW,329,4.0,7.0,100,0.00,,,0.00,Wunderground v.1.15,2013-01-07 11:35:00,
2013-01-07 06:45:00,35.5,35.5,30.02,North,353,4.0,4.0,100,0.00,,,0.00,Wunderground v.1.15,2013-01-07 11:45:00,
2013-01-07 06:50:00,35.6,35.6,30.02,WNW,302,4.0,6.0,100,0.00,,,0.00,Wunderground v.1.15,2013-01-07 11:50:00,
2013-01-07 06:55:00,35.6,35.6,30.02,NW,322,3.0,8.0,100,0.00,,,0.00,Wunderground v.1.15,2013-01-07 11:55:00,
2013-01-07 07:00:00,35.8,35.8,30.03,NW,308,3.0,3.0,100,0.00,,,0.00,Wunderground v.1.15,2013-01-07 12:00:00,
2013-01-07 07:10:00,35.8,35.8,30.03,NNW,333,3.0,7.0,100,0.00,,,0.00,Wunderground v.1.15,2013-01-07 12:10:00,
2013-01-07 07:15:00,35.9,35.9,30.04,North,350,3.0,7.0,100,0.00,,,0.00,Wunderground v.1.15,2013-01-07 12:15:00,
2013-01-07 07:20:00,36.0,36.0,30.04,North,354,4.0,4.0,100,0.00,,,0.00,Wunderground v.1.15,2013-01-07 12:20:00,
2013-01-07 07:30:00,36.2,36.2,30.05,WNW,298,3.0,6.0,100,0.00,,,0.00,Wunderground v.1.15,2013-01-07 12:30:00,
2013-01-07 07:35:00,36.3,36.3,30.05,NNW,328,3.0,6.0,100,0.00,,,0.00,Wunderground v.1.15,2013-01-07 12:35:00,
2013-01-07 07:40:00,36.5,36.5,30.05,North,9,4.0,4.0,100,0.00,,,0.00,Wunderground v.1.15,2013-01-07 12:40:00,
2013-01-07 07:45:00,36.6,36.6,30.06,NNW,330,4.0,4.0,100,0.00,,,0.00,Wunderground v.1.15,2013-01-07 12:45:00,
2013-01-07 07:50:00,36.8,36.8,30.06,NNE,28,4.0,4.0,100,0.00,,,0.00,Wunderground v.1.15,2013-01-07 12:50:00,
2013-01-07 07:55:00,36.9,36.9,30.06,North,6,4.0,4.0,100,0.00,,,0.00,Wunderground v.1.15,2013-01-07 12:55:00,
2013-01-07 08:00:00,37.2,37.2,30.07,NNW,342,5.0,5.0,100,0.00,,,0.00,Wunderground v.1.15,2013-01-07 13:00:00,
2013-01-07 08:10:00,37.5,37.5,30.07,North,350,4.0,4.0,100,0.00,,,0.00,Wunderground v.1.15,2013-01-07 13:10:00,
2013-01-07 08:15:00,37.8,37.8,30.08,NNW,339,4.0,7.0,100,0.00,,,0.00,Wunderground v.1.15,2013-01-07 13:15:00,
2013-01-07 08:20:00,38.2,38.2,30.08,NNW,336,5.0,5.0,100,0.00,,,0.00,Wunderground v.1.15,2013-01-07 13:20:00,
2013-01-07 08:25:00,38.6,38.6,30.08,North,11,6.0,6.0,100,0.00,,,0.00,Wunderground v.1.15,2013-01-07 13:25:00,
2013-01-07 08:30:00,38.9,38.9,30.08,NNE,20,6.0,6.0,100,0.00,,,0.00,Wunderground v.1.15,2013-01-07 13:30:00,
2013-01-07 08:35:00,39.3,39.3,30.08,North,6,6.0,12.0,100,0.00,,,0.00,Wunderground v.1.15,2013-01-07 13:35:00,
2013-01-07 08:45:00,39.8,39.8,30.10,NW,323,6.0,6.0,100,0.00,,,0.00,Wunderground v.1.15,2013-01-07 13:45:00,
2013-01-07 08:55:00,40.2,40.2,30.10,North,2,6.0,7.0,100,0.00,,,0.00,Wunderground v.1.15,2013-01-07 13:55:00,
2013-01-07 09:00:00,40.5,40.5,30.11,North,3,5.0,11.0,100,0.00,,,0.00,Wunderground v.1.15,2013-01-07 14:00:00,
2013-01-07 09:05:00,40.8,40.8,30.11,NNW,340,5.0,11.0,100,0.00,,,0.00,Wunderground v.1.15,2013-01-07 14:05:00,
2013-01-07 09:10:00,40.8,40.8,30.11,North,354,6.0,6.0,100,0.00,,,0.00,Wunderground v.1.15,2013-01-07 14:10:00,
2013-01-07 09:15:00,40.9,40.9,30.12,NNW,345,7.0,7.0,100,0.00,,,0.00,Wunderground v.1.15,2013-01-07 14:15:00,
2013-01-07 09:20:00,41.2,41.2,30.12,NE,45,7.0,7.0,100,0.00,,,0.00,Wunderground v.1.15,2013-01-07 14:20:00,
2013-01-07 09:30:00,41.3,41.3,30.13,NNW,339,8.0,8.0,100,0.00,,,0.00,Wunderground v.1.15,2013-01-07 14:30:00,
2013-01-07 09:35:00,41.5,41.5,30.13,NNE,17,8.0,8.0,100,0.00,,,0.00,Wunderground v.1.15,2013-01-07 14:35:00,
2013-01-07 09:40:00,41.5,41.5,30.13,North,6,8.0,8.0,100,0.00,,,0.00,Wunderground v.1.15,2013-01-07 14:40:00,
2013-01-07 09:45:00,41.2,41.2,30.14,NNE,13,10.0,13.0,100,0.00,,,0.00,Wunderground v.1.15,2013-01-07 14:45:00,
2013-01-07 09:50:00,40.9,40.9,30.14,NNE,24,11.0,11.0,100,0.00,,,0.00,Wunderground v.1.15,2013-01-07 14:50:00,
2013-01-07 10:00:00,41.3,41.3,30.15,NNE,30,9.0,9.0,100,0.00,,,0.00,Wunderground v.1.15,2013-01-07 15:00:00,
2013-01-07 10:10:00,41.3,41.3,30.15,North,10,10.0,12.0,100,0.00,,,0.00,Wunderground v.1.15,2013-01-07 15:10:00,
2013-01-07 10:15:00,41.3,41.3,30.15,North,357,9.0,12.0,100,0.00,,,0.00,Wunderground v.1.15,2013-01-07 15:15:00,
2013-01-07 10:20:00,41.5,41.5,30.15,NNE,21,9.0,9.0,100,0.00,,,0.00,Wunderground v.1.15,2013-01-07 15:20:00,
2013-01-07 10:25:00,41.6,41.6,30.15,North,7,8.0,9.0,100,0.00,,,0.00,Wunderground v.1.15,2013-01-07 15:25:00,
2013-01-07 10:30:00,41.6,41.6,30.15,NNE,24,7.0,7.0,100,0.00,,,0.00,Wunderground v.1.15,2013-01-07 15:30:00,
2013-01-07 10:35:00,41.6,41.6,30.15,North,4,7.0,16.0,100,0.00,,,0.00,Wunderground v.1.15,2013-01-07 15:35:00,
2013-01-07 10:40:00,41.6,41.6,30.15,North,9,9.0,9.0,100,0.00,,,0.00,Wunderground v.1.15,2013-01-07 15:40:00,
2013-01-07 10:45:00,41.6,41.6,30.15,NNE,16,9.0,11.0,100,0.00,,,0.00,Wunderground v.1.15,2013-01-07 15:45:00,
2013-01-07 10:50:00,41.6,41.6,30.15,NNE,23,8.0,11.0,100,0.00,,,0.00,Wunderground v.1.15,2013-01-07 15:50:00,
2013-01-07 10:55:00,41.3,41.3,30.15,NNE,28,10.0,11.0,100,0.00,,,0.00,Wunderground v.1.15,2013-01-07 15:55:00,
2013-01-07 11:00:00,41.5,41.5,30.16,NE,35,9.0,16.0,100,0.00,,,0.00,Wunderground v.1.15,2013-01-07 16:00:00,
2013-01-07 11:05:00,41.6,41.6,30.16,NNE,23,9.0,16.0,100,0.00,,,0.00,Wunderground v.1.15,2013-01-07 16:05:00,
2013-01-07 11:16:00,41.6,41.6,30.16,North,350,8.0,12.0,100,0.00,,,0.00,Wunderground v.1.15,2013-01-07 16:16:00,
2013-01-07 11:21:00,42.1,42.1,30.16,NNE,23,7.0,21.0,100,0.00,,,0.00,Wunderground v.1.15,2013-01-07 16:21:00,
2013-01-07 11:31:00,41.3,41.3,30.16,North,350,10.0,10.0,100,0.00,,,0.00,Wunderground v.1.15,2013-01-07 16:31:00,
2013-01-07 11:36:00,41.6,41.6,30.16,NE,50,9.0,10.0,100,0.00,,,0.00,Wunderground v.1.15,2013-01-07 16:36:00,
2013-01-07 11:46:00,41.8,41.8,30.16,NNE,20,8.0,16.0,100,0.00,,,0.00,Wunderground v.1.15,2013-01-07 16:46:00,
2013-01-07 11:51:00,41.6,41.6,30.16,North,353,9.0,9.0,100,0.00,,,0.00,Wunderground v.1.15,2013-01-07 16:51:00,
2013-01-07 12:00:00,41.6,41.6,30.17,North,11,10.0,10.0,100,0.00,,,0.00,Wunderground v.1.15,2013-01-07 17:00:00,
2013-01-07 12:05:00,41.6,41.6,30.17,NNE,17,9.0,10.0,100,0.00,,,0.00,Wunderground v.1.15,2013-01-07 17:05:00,
2013-01-07 12:15:00,40.6,40.6,30.18,North,10,10.0,10.0,100,0.00,,,0.00,Wunderground v.1.15,2013-01-07 17:15:00,
2013-01-07 12:20:00,40.1,40.1,30.18,NNE,20,9.0,11.0,100,0.00,,,0.00,Wunderground v.1.15,2013-01-07 17:20:00,
2013-01-07 12:30:00,39.1,39.1,30.19,North,2,6.0,6.0,100,0.00,,,0.00,Wunderground v.1.15,2013-01-07 17:30:00,
2013-01-07 12:35:00,38.6,38.6,30.19,NNE,30,5.0,11.0,100,0.00,,,0.00,Wunderground v.1.15,2013-01-07 17:35:00,
2013-01-07 12:41:00,38.3,38.3,30.19,North,10,5.0,5.0,100,0.00,,,0.00,Wunderground v.1.15,2013-01-07 17:41:00,
2013-01-07 12:46:00,38.2,38.2,30.20,NNE,31,5.0,9.0,100,0.00,,,0.00,Wunderground v.1.15,2013-01-07 17:46:00,
2013-01-07 12:51:00,38.2,38.2,30.20,NNE,21,6.0,6.0,100,0.00,,,0.00,Wunderground v.1.15,2013-01-07 17:51:00,
2013-01-07 13:01:00,38.5,38.5,30.20,NNE,21,7.0,7.0,100,0.00,,,0.00,Wunderground v.1.15,2013-01-07 18:01:00,
2013-01-07 13:06:00,38.6,38.6,30.20,North,6,8.0,17.0,100,0.00,,,0.00,Wunderground v.1.15,2013-01-07 18:06:00,
2013-01-07 13:11:00,38.8,38.8,30.20,North,11,8.0,8.0,100,0.00,,,0.00,Wunderground v.1.15,2013-01-07 18:11:00,
2013-01-07 13:16:00,38.9,38.9,30.22,ENE,78,5.0,8.0,100,0.00,,,0.00,Wunderground v.1.15,2013-01-07 18:16:00,
2013-01-07 13:21:00,38.8,38.8,30.22,NE,48,4.0,4.0,100,0.00,,,0.00,Wunderground v.1.15,2013-01-07 18:21:00,
2013-01-07 13:31:00,38.5,38.5,30.23,North,2,6.0,6.0,100,0.00,,,0.00,Wunderground v.1.15,2013-01-07 18:31:00,
2013-01-07 13:36:00,38.2,38.2,30.23,NNE,24,8.0,8.0,100,0.00,,,0.00,Wunderground v.1.15,2013-01-07 18:36:00,
2013-01-07 13:46:00,37.9,37.9,30.23,North,10,7.0,13.0,100,0.00,,,0.00,Wunderground v.1.15,2013-01-07 18:46:00,
2013-01-07 13:51:00,37.9,37.9,30.23,NE,37,7.0,12.0,100,0.00,,,0.00,Wunderground v.1.15,2013-01-07 18:51:00,
2013-01-07 14:01:00,37.8,37.8,30.25,NE,44,6.0,6.0,100,0.00,,,0.00,Wunderground v.1.15,2013-01-07 19:01:00,
2013-01-07 14:06:00,37.6,37.6,30.25,ENE,58,5.0,6.0,100,0.00,,,0.00,Wunderground v.1.15,2013-01-07 19:06:00,
2013-01-07 14:16:00,37.5,37.5,30.26,NNE,21,6.0,10.0,100,0.00,,,0.00,Wunderground v.1.15,2013-01-07 19:16:00,
2013-01-07 14:26:00,37.3,37.3,30.26,NNE,21,7.0,11.0,100,0.00,,,0.00,Wunderground v.1.15,2013-01-07 19:26:00,
2013-01-07 14:31:00,37.3,37.3,30.26,ENE,61,5.0,5.0,100,0.00,,,0.00,Wunderground v.1.15,2013-01-07 19:31:00,
2013-01-07 14:36:00,37.6,37.6,30.26,North,10,5.0,7.0,100,0.00,,,0.00,Wunderground v.1.15,2013-01-07 19:36:00,
2013-01-07 14:41:00,37.6,37.6,30.26,NNE,20,7.0,11.0,100,0.00,,,0.00,Wunderground v.1.15,2013-01-07 19:41:00,
2013-01-07 14:46:00,37.3,37.3,30.27,NNE,23,6.0,11.0,100,0.00,,,0.00,Wunderground v.1.15,2013-01-07 19:46:00,
2013-01-07 14:51:00,37.2,37.2,30.27,North,9,5.0,6.0,100,0.00,,,0.00,Wunderground v.1.15,2013-01-07 19:51:00,
2013-01-07 15:01:00,37.2,37.2,30.28,NE,55,5.0,5.0,100,0.00,,,0.00,Wunderground v.1.15,2013-01-07 20:01:00,
2013-01-07 15:06:00,37.0,37.0,30.28,NNE,17,4.0,6.0,100,0.00,,,0.00,Wunderground v.1.15,2013-01-07 20:06:00,
2013-01-07 15:16:00,36.6,36.6,30.29,NNE,27,3.0,8.0,100,0.00,,,0.00,Wunderground v.1.15,2013-01-07 20:16:00,
2013-01-07 15:21:00,36.5,36.5,30.29,NNE,26,4.0,6.0,100,0.00,,,0.00,Wunderground v.1.15,2013-01-07 20:21:00,
2013-01-07 15:31:00,36.0,36.0,30.30,NNE,20,4.0,4.0,100,0.00,,,0.00,Wunderground v.1.15,2013-01-07 20:31:00,
2013-01-07 15:36:00,35.8,35.8,30.30,NE,42,3.0,4.0,100,0.00,,,0.00,Wunderground v.1.15,2013-01-07 20:36:00,
2013-01-07 15:46:00,35.6,35.6,30.31,NNE,21,3.0,3.0,100,0.00,,,0.00,Wunderground v.1.15,2013-01-07 20:46:00,
2013-01-07 15:51:00,35.6,35.6,30.31,NE,41,3.0,3.0,100,0.00,,,0.00,Wunderground v.1.15,2013-01-07 20:51:00,
2013-01-07 15:56:00,35.5,35.5,30.31,NE,41,2.0,3.0,100,0.00,,,0.00,Wunderground v.1.15,2013-01-07 20:56:00,
2013-01-07 16:01:00,35.5,35.5,30.31,NE,41,1.0,1.0,100,0.00,,,0.00,Wunderground v.1.15,2013-01-07 21:01:00,
2013-01-07 16:11:00,35.2,35.2,30.31,NE,41,0.0,0.0,100,0.00,,,0.00,Wunderground v.1.15,2013-01-07 21:11:00,
2013-01-07 16:16:00,35.0,35.0,30.31,NE,41,1.0,2.0,100,0.00,,,0.00,Wunderground v.1.15,2013-01-07 21:16:00,
2013-01-07 16:21:00,34.9,34.9,30.31,NE,40,1.0,1.0,100,0.00,,,0.00,Wunderground v.1.15,2013-01-07 21:21:00,
2013-01-07 16:31:00,34.6,34.6,30.32,NE,40,1.0,1.0,100,0.00,,,0.00,Wunderground v.1.15,2013-01-07 21:31:00,
2013-01-07 16:36:00,34.4,34.4,30.32,NE,40,0.0,1.0,100,0.00,,,0.00,Wunderground v.1.15,2013-01-07 21:36:00,
2013-01-07 16:41:00,34.1,34.1,30.32,NE,40,0.0,0.0,100,0.00,,,0.00,Wunderground v.1.15,2013-01-07 21:41:00,
2013-01-07 16:46:00,34.0,34.0,30.32,NE,38,1.0,1.0,100,0.00,,,0.00,Wunderground v.1.15,2013-01-07 21:46:00,
2013-01-07 16:51:00,33.8,33.8,30.32,NE,38,1.0,2.0,100,0.00,,,0.00,Wunderground v.1.15,2013-01-07 21:51:00,
2013-01-07 17:01:00,33.5,33.5,30.32,NE,38,1.0,1.0,100,0.00,,,0.00,Wunderground v.1.15,2013-01-07 22:01:00,
2013-01-07 17:06:00,33.2,33.2,30.32,NE,38,1.0,3.0,100,0.00,,,0.00,Wunderground v.1.15,2013-01-07 22:06:00,
2013-01-07 17:16:00,32.9,32.9,30.33,NE,38,0.0,2.0,100,0.00,,,0.00,Wunderground v.1.15,2013-01-07 22:16:00,
2013-01-07 17:21:00,32.7,32.7,30.33,NE,38,0.0,0.0,100,0.00,,,0.00,Wunderground v.1.15,2013-01-07 22:21:00,
2013-01-07 17:26:00,32.5,32.5,30.33,NE,38,0.0,2.0,100,0.00,,,0.00,Wunderground v.1.15,2013-01-07 22:26:00,
2013-01-07 17:31:00,32.2,32.2,30.34,NE,38,1.0,2.0,100,0.00,,,0.00,Wunderground v.1.15,2013-01-07 22:31:00,
2013-01-07 17:36:00,31.9,31.9,30.34,NE,38,1.0,2.0,100,0.00,,,0.00,Wunderground v.1.15,2013-01-07 22:36:00,
2013-01-07 17:41:00,31.6,31.6,30.34,NE,38,1.0,1.0,100,0.00,,,0.00,Wunderground v.1.15,2013-01-07 22:41:00,
2013-01-07 17:46:00,31.5,31.5,30.34,NE,38,0.0,1.0,100,0.00,,,0.00,Wunderground v.1.15,2013-01-07 22:46:00,
2013-01-07 17:56:00,31.0,31.0,30.34,NE,38,0.0,0.0,100,0.00,,,0.00,Wunderground v.1.15,2013-01-07 22:56:00,
2013-01-07 18:01:00,30.9,30.9,30.35,NE,38,0.0,0.0,100,0.00,,,0.00,Wunderground v.1.15,2013-01-07 23:01:00,
2013-01-07 18:06:00,30.6,30.6,30.35,NE,38,0.0,0.0,100,0.00,,,0.00,Wunderground v.1.15,2013-01-07 23:06:00,
2013-01-07 18:16:00,30.1,30.1,30.35,NE,38,0.0,2.0,100,0.00,,,0.00,Wunderground v.1.15,2013-01-07 23:16:00,
2013-01-07 18:21:00,30.1,30.1,30.35,NE,38,1.0,2.0,100,0.00,,,0.00,Wunderground v.1.15,2013-01-07 23:21:00,
2013-01-07 18:30:00,30.0,30.0,30.36,NE,38,2.0,2.0,100,0.00,,,0.00,Wunderground v.1.15,2013-01-07 23:30:00,
2013-01-07 18:35:00,29.7,29.7,30.36,NE,38,1.0,2.0,100,0.00,,,0.00,Wunderground v.1.15,2013-01-07 23:35:00,
2013-01-07 18:40:00,29.4,29.4,30.36,NE,38,0.0,0.0,100,0.00,,,0.00,Wunderground v.1.15,2013-01-07 23:40:00,
2013-01-07 18:45:00,29.1,29.1,30.37,NE,38,0.0,0.0,100,0.00,,,0.00,Wunderground v.1.15,2013-01-07 23:45:00,
2013-01-07 18:55:00,29.0,29.0,30.37,NE,38,0.0,0.0,100,0.00,,,0.00,Wunderground v.1.15,2013-01-07 23:55:00,
2013-01-07 19:00:00,28.7,28.7,30.37,NE,38,0.0,0.0,100,0.00,,,0.00,Wunderground v.1.15,2013-01-08 00:00:00,
2013-01-07 19:10:00,28.4,28.4,30.37,NE,38,0.0,0.0,100,0.00,,,0.00,Wunderground v.1.15,2013-01-08 00:10:00,
2013-01-07 19:15:00,28.2,28.2,30.36,NE,38,0.0,0.0,100,0.00,,,0.00,Wunderground v.1.15,2013-01-08 00:15:00,
2013-01-07 19:20:00,28.1,28.1,30.36,NE,38,0.0,0.0,100,0.00,,,0.00,Wunderground v.1.15,2013-01-08 00:20:00,
2013-01-07 19:25:00,27.9,27.9,30.36,NE,38,0.0,0.0,100,0.00,,,0.00,Wunderground v.1.15,2013-01-08 00:25:00,
2013-01-07 19:30:00,27.9,27.9,30.36,NE,38,0.0,0.0,100,0.00,,,0.00,Wunderground v.1.15,2013-01-08 00:30:00,
2013-01-07 19:35:00,27.8,27.8,30.36,NE,38,0.0,0.0,100,0.00,,,0.00,Wunderground v.1.15,2013-01-08 00:35:00,
2013-01-07 19:40:00,27.8,27.8,30.36,NE,38,0.0,0.0,100,0.00,,,0.00,Wunderground v.1.15,2013-01-08 00:40:00,
2013-01-07 19:45:00,27.6,27.6,30.37,NE,38,0.0,0.0,100,0.00,,,0.00,Wunderground v.1.15,2013-01-08 00:45:00,
2013-01-07 19:50:00,27.5,27.5,30.37,NE,38,0.0,0.0,100,0.00,,,0.00,Wunderground v.1.15,2013-01-08 00:50:00,
2013-01-07 19:55:00,27.5,27.5,30.37,NE,38,0.0,0.0,100,0.00,,,0.00,Wunderground v.1.15,2013-01-08 00:55:00,
2013-01-07 20:00:00,27.3,27.3,30.36,NE,38,0.0,0.0,100,0.00,,,0.00,Wunderground v.1.15,2013-01-08 01:00:00,
2013-01-07 20:05:00,27.3,27.3,30.36,NE,38,0.0,0.0,100,0.00,,,0.00,Wunderground v.1.15,2013-01-08 01:05:00,
2013-01-07 20:10:00,27.2,27.2,30.36,NE,38,0.0,0.0,100,0.00,,,0.00,Wunderground v.1.15,2013-01-08 01:10:00,
2013-01-07 20:15:00,27.3,27.3,30.37,NE,38,0.0,0.0,100,0.00,,,0.00,Wunderground v.1.15,2013-01-08 01:15:00,
2013-01-07 20:20:00,27.3,27.3,30.37,NE,38,0.0,0.0,100,0.00,,,0.00,Wunderground v.1.15,2013-01-08 01:20:00,
2013-01-07 20:30:00,27.2,27.2,30.36,NE,38,0.0,0.0,100,0.00,,,0.00,Wunderground v.1.15,2013-01-08 01:30:00,
2013-01-07 20:35:00,27.0,27.0,30.36,NE,38,0.0,0.0,100,0.00,,,0.00,Wunderground v.1.15,2013-01-08 01:35:00,
2013-01-07 20:40:00,27.0,27.0,30.36,NE,38,0.0,0.0,100,0.00,,,0.00,Wunderground v.1.15,2013-01-08 01:40:00,
2013-01-07 20:45:00,26.9,26.9,30.36,NE,38,0.0,0.0,100,0.00,,,0.00,Wunderground v.1.15,2013-01-08 01:45:00,
2013-01-07 20:55:00,26.7,26.7,30.36,NE,38,0.0,0.0,100,0.00,,,0.00,Wunderground v.1.15,2013-01-08 01:55:00,
2013-01-07 21:00:00,26.6,26.6,30.36,NE,38,0.0,0.0,100,0.00,,,0.00,Wunderground v.1.15,2013-01-08 02:00:00,
2013-01-07 21:05:00,26.6,26.6,30.36,NE,38,0.0,0.0,100,0.00,,,0.00,Wunderground v.1.15,2013-01-08 02:05:00,
2013-01-07 21:10:00,26.4,26.4,30.36,NE,38,0.0,0.0,100,0.00,,,0.00,Wunderground v.1.15,2013-01-08 02:10:00,
2013-01-07 21:15:00,26.4,26.4,30.36,NE,38,0.0,0.0,100,0.00,,,0.00,Wunderground v.1.15,2013-01-08 02:15:00,
2013-01-07 21:20:00,26.3,26.3,30.36,NE,38,0.0,0.0,100,0.00,,,0.00,Wunderground v.1.15,2013-01-08 02:20:00,
2013-01-07 21:25:00,26.3,26.3,30.36,NE,38,0.0,0.0,100,0.00,,,0.00,Wunderground v.1.15,2013-01-08 02:25:00,
2013-01-07 21:30:00,26.3,26.3,30.35,NE,38,0.0,0.0,100,0.00,,,0.00,Wunderground v.1.15,2013-01-08 02:30:00,
2013-01-07 21:35:00,26.3,26.3,30.35,NE,38,0.0,0.0,100,0.00,,,0.00,Wunderground v.1.15,2013-01-08 02:35:00,
2013-01-07 21:40:00,26.3,26.3,30.35,NE,38,0.0,0.0,100,0.00,,,0.00,Wunderground v.1.15,2013-01-08 02:40:00,
2013-01-07 21:45:00,26.4,26.4,30.35,NE,38,0.0,0.0,100,0.00,,,0.00,Wunderground v.1.15,2013-01-08 02:45:00,
2013-01-07 21:50:00,26.4,26.4,30.35,NE,38,0.0,0.0,100,0.00,,,0.00,Wunderground v.1.15,2013-01-08 02:50:00,
2013-01-07 22:00:00,26.6,26.6,30.35,NE,38,0.0,0.0,100,0.00,,,0.00,Wunderground v.1.15,2013-01-08 03:00:00,
2013-01-07 22:05:00,26.7,26.7,30.35,NE,38,0.0,0.0,100,0.00,,,0.00,Wunderground v.1.15,2013-01-08 03:05:00,
2013-01-07 22:10:00,27.0,27.0,30.35,NE,38,0.0,0.0,100,0.00,,,0.00,Wunderground v.1.15,2013-01-08 03:10:00,
2013-01-07 22:15:00,27.5,27.5,30.36,NE,38,0.0,0.0,100,0.00,,,0.00,Wunderground v.1.15,2013-01-08 03:15:00,
2013-01-07 22:20:00,28.1,28.1,30.36,NE,38,0.0,0.0,100,0.00,,,0.00,Wunderground v.1.15,2013-01-08 03:20:00,
2013-01-07 22:25:00,28.5,28.5,30.36,NE,38,0.0,0.0,100,0.00,,,0.00,Wunderground v.1.15,2013-01-08 03:25:00,
2013-01-07 22:30:00,28.7,28.7,30.36,NE,38,0.0,0.0,100,0.00,,,0.00,Wunderground v.1.15,2013-01-08 03:30:00,
2013-01-07 22:35:00,28.7,28.7,30.36,NE,38,0.0,0.0,100,0.00,,,0.00,Wunderground v.1.15,2013-01-08 03:35:00,
2013-01-07 22:40:00,28.7,28.7,30.36,NE,38,0.0,0.0,100,0.00,,,0.00,Wunderground v.1.15,2013-01-08 03:40:00,
2013-01-07 22:45:00,28.8,28.8,30.36,NE,38,0.0,0.0,100,0.00,,,0.00,Wunderground v.1.15,2013-01-08 03:45:00,
2013-01-07 22:50:00,29.1,29.1,30.36,NE,38,0.0,2.0,100,0.00,,,0.00,Wunderground v.1.15,2013-01-08 03:50:00,
2013-01-07 23:00:00,30.0,30.0,30.36,NE,38,1.0,2.0,100,0.00,,,0.00,Wunderground v.1.15,2013-01-08 04:00:00,
2013-01-07 23:05:00,30.1,30.1,30.36,NE,38,2.0,3.0,100,0.00,,,0.00,Wunderground v.1.15,2013-01-08 04:05:00,
2013-01-07 23:15:00,30.7,30.7,30.35,NE,38,2.0,2.0,100,0.00,,,0.00,Wunderground v.1.15,2013-01-08 04:15:00,
2013-01-07 23:20:00,30.9,30.9,30.35,NE,38,2.0,3.0,100,0.00,,,0.00,Wunderground v.1.15,2013-01-08 04:20:00,
2013-01-07 23:25:00,31.3,31.3,30.35,NE,38,2.0,3.0,100,0.00,,,0.00,Wunderground v.1.15,2013-01-08 04:25:00,
2013-01-07 23:30:00,31.5,31.5,30.35,NE,38,2.0,2.0,100,0.00,,,0.00,Wunderground v.1.15,2013-01-08 04:30:00,
2013-01-07 23:40:00,31.6,31.6,30.35,NE,38,2.0,2.0,100,0.00,,,0.00,Wunderground v.1.15,2013-01-08 04:40:00,
2013-01-07 23:45:00,31.8,31.8,30.35,NE,38,2.0,3.0,100,0.00,,,0.00,Wunderground v.1.15,2013-01-08 04:45:00,
2013-01-07 23:51:00,32.1,32.1,30.35,NE,38,3.0,3.0,100,0.00,,,0.00,Wunderground v.1.15,2013-01-08 04:51:00,
2013-01-07 23:56:00,32.5,32.5,30.35,NE,38,4.0,4.0,100,0.00,,,0.00,Wunderground v.1.15,2013-01-08 04:56:00,